Time;durP1;ratioP1;P1;durP2;ratioP2;P2;SDS_P1;SDS_P2;PMS_P1;PMS_P2;Temp;Humidity;BMP_temperature;BMP_pressure;BME280_temperature;BME280_humidity;BME280_pressure;Samples;Min_cycle;Max_cycle;Signal;HPM_P1;HPM_P2
2021/07/21 00:00:48;;;;;;;12.43;7.85;;;16.10;99.90;;;;;;5052382;28;20064;-72
2021/07/21 00:03:16;;;;;;;12.50;8.05;;;16.10;99.90;;;;;;5040312;28;20049;-72
2021/07/21 00:05:44;;;;;;;16.20;9.43;;;16.00;99.90;;;;;;5046599;28;20439;-71
2021/07/21 00:08:11;;;;;;;15.43;8.63;;;16.10;99.90;;;;;;5040555;28;20064;-72
2021/07/21 00:10:39;;;;;;;14.20;8.70;;;16.00;99.90;;;;;;5051017;28;20106;-71
2021/07/21 00:20:59;;;;;;;14.85;8.85;;;15.90;99.90;;;;;;5033101;28;20041;-72
2021/07/21 00:23:27;;;;;;;13.85;9.38;;;15.80;99.90;;;;;;5048439;28;20040;-72
2021/07/21 00:25:56;;;;;;;12.63;8.75;;;15.80;99.90;;;;;;5036093;28;20049;-72
2021/07/21 00:28:24;;;;;;;14.63;9.02;;;15.80;99.90;;;;;;5040175;28;20054;-71
2021/07/21 00:30:52;;;;;;;12.45;8.95;;;15.80;99.90;;;;;;5043982;28;20045;-72
2021/07/21 00:33:19;;;;;;;11.98;8.23;;;15.70;99.90;;;;;;5028819;28;20049;-72
2021/07/21 00:35:47;;;;;;;15.40;9.50;;;15.70;99.90;;;;;;5041705;28;20076;-72
2021/07/21 00:38:15;;;;;;;13.90;9.20;;;15.70;99.90;;;;;;5018889;28;20141;-72
2021/07/21 00:40:43;;;;;;;13.88;9.35;;;15.70;99.90;;;;;;5045338;28;20044;-72
2021/07/21 00:43:11;;;;;;;15.23;9.18;;;15.70;99.90;;;;;;5048923;28;20048;-72
2021/07/21 00:45:41;;;;;;;17.35;9.40;;;15.70;99.90;;;;;;5046488;28;20041;-72
2021/07/21 00:48:09;;;;;;;14.27;9.20;;;15.60;99.90;;;;;;5049343;28;20059;-72
2021/07/21 00:50:38;;;;;;;12.30;8.50;;;15.60;99.90;;;;;;5002849;28;20044;-72
2021/07/21 00:53:06;;;;;;;14.82;9.38;;;15.60;99.90;;;;;;5046250;28;20037;-72
2021/07/21 00:55:35;;;;;;;14.95;10.10;;;15.50;99.90;;;;;;5030531;28;20503;-72
2021/07/21 00:58:03;;;;;;;13.02;8.70;;;15.50;99.90;;;;;;5049814;28;20081;-72
2021/07/21 01:00:31;;;;;;;13.82;9.32;;;15.50;99.90;;;;;;5042765;28;20432;-72
2021/07/21 01:02:59;;;;;;;15.73;9.65;;;15.40;99.90;;;;;;5050505;28;20036;-72
2021/07/21 01:05:32;;;;;;;14.27;9.70;;;15.40;99.90;;;;;;5048528;28;20044;-72
2021/07/21 01:08:07;;;;;;;15.65;10.00;;;15.40;99.90;;;;;;5040031;28;20045;-72
2021/07/21 01:11:10;;;;;;;13.77;9.10;;;15.40;99.90;;;;;;5019235;28;20065;-72
2021/07/21 01:14:01;;;;;;;14.60;9.82;;;15.40;99.90;;;;;;5047713;28;20041;-72
2021/07/21 01:16:35;;;;;;;13.73;9.45;;;15.40;99.90;;;;;;5049708;28;20531;-72
2021/07/21 01:19:20;;;;;;;16.15;10.10;;;15.40;99.90;;;;;;5028226;28;20037;-72
2021/07/21 01:22:02;;;;;;;15.35;10.18;;;15.30;99.90;;;;;;5030244;28;20423;-72
2021/07/21 01:24:57;;;;;;;16.90;10.48;;;15.40;99.90;;;;;;5036060;28;20037;-72
2021/07/21 01:27:53;;;;;;;14.35;9.57;;;15.30;99.90;;;;;;5045600;28;20045;-70
2021/07/21 01:30:35;;;;;;;16.45;10.25;;;15.30;99.90;;;;;;5023513;28;20037;-70
2021/07/21 01:33:09;;;;;;;15.68;9.98;;;15.20;99.90;;;;;;5029141;28;20493;-70
2021/07/21 01:35:54;;;;;;;17.15;10.32;;;15.20;99.90;;;;;;5037172;28;20041;-70
2021/07/21 01:38:32;;;;;;;14.25;9.18;;;15.10;99.90;;;;;;5045988;28;20064;-70
2021/07/21 01:41:09;;;;;;;13.82;9.40;;;15.10;99.90;;;;;;5042670;28;20053;-70
2021/07/21 01:43:39;;;;;;;17.30;10.63;;;15.10;99.90;;;;;;5014405;28;20523;-70
2021/07/21 01:46:07;;;;;;;18.95;9.93;;;15.00;99.90;;;;;;5046057;28;20041;-70
2021/07/21 01:48:39;;;;;;;14.95;10.02;;;15.00;99.90;;;;;;5048321;28;20396;-70
2021/07/21 01:51:10;;;;;;;16.55;9.75;;;15.00;99.90;;;;;;5038820;28;20053;-70
2021/07/21 01:53:39;;;;;;;18.70;10.97;;;15.00;99.90;;;;;;5016245;28;20169;-70
2021/07/21 01:56:14;;;;;;;16.92;10.52;;;14.90;99.90;;;;;;5051833;28;20060;-70
2021/07/21 01:58:43;;;;;;;15.00;10.35;;;14.90;99.90;;;;;;5042676;28;20049;-72
2021/07/21 02:01:32;;;;;;;17.48;10.18;;;14.90;99.90;;;;;;5052405;28;20073;-71
2021/07/21 02:04:06;;;;;;;17.63;10.95;;;14.90;99.90;;;;;;5051118;28;20124;-72
2021/07/21 02:06:35;;;;;;;18.23;11.40;;;14.80;99.90;;;;;;5052354;28;20487;-70
2021/07/21 02:09:07;;;;;;;14.13;10.30;;;14.70;99.90;;;;;;5033257;28;20132;-70
2021/07/21 02:11:39;;;;;;;16.40;10.45;;;14.70;99.90;;;;;;5044993;28;20044;-72
2021/07/21 02:14:10;;;;;;;18.00;10.75;;;14.60;99.90;;;;;;5050544;28;20041;-70
2021/07/21 02:16:57;;;;;;;14.70;9.75;;;14.60;99.90;;;;;;5040360;28;20563;-72
2021/07/21 02:19:31;;;;;;;16.50;9.75;;;14.60;99.90;;;;;;5034146;28;20101;-70
2021/07/21 02:22:28;;;;;;;14.98;9.98;;;14.50;99.90;;;;;;5041683;28;20041;-70
2021/07/21 02:25:19;;;;;;;17.42;10.77;;;14.50;99.90;;;;;;5053725;28;20522;-71
2021/07/21 02:27:47;;;;;;;15.50;10.13;;;14.50;99.90;;;;;;5029426;28;20037;-70
2021/07/21 02:30:15;;;;;;;18.55;11.20;;;14.50;99.90;;;;;;5034376;28;20061;-71
2021/07/21 02:33:01;;;;;;;19.17;11.55;;;14.50;99.90;;;;;;5030498;28;20041;-71
2021/07/21 02:35:29;;;;;;;17.05;11.10;;;14.40;99.90;;;;;;5049106;28;20141;-71
2021/07/21 02:38:00;;;;;;;14.75;10.43;;;14.40;99.90;;;;;;5035017;28;20070;-71
2021/07/21 02:40:33;;;;;;;15.70;10.88;;;14.30;99.90;;;;;;5034300;28;20259;-70
2021/07/21 02:43:12;;;;;;;15.40;10.90;;;14.30;99.90;;;;;;5037166;28;20041;-71
2021/07/21 02:45:42;;;;;;;15.07;10.10;;;14.20;99.90;;;;;;5051523;28;20048;-71
2021/07/21 02:48:11;;;;;;;15.25;10.40;;;14.20;99.90;;;;;;5033397;28;20049;-71
2021/07/21 02:50:47;;;;;;;17.67;10.38;;;14.20;99.90;;;;;;5016649;28;20049;-71
2021/07/21 02:53:25;;;;;;;16.25;10.60;;;14.20;99.90;;;;;;5046335;28;20053;-70
2021/07/21 02:56:14;;;;;;;16.02;10.45;;;14.10;99.90;;;;;;5049950;28;20037;-71
2021/07/21 02:59:00;;;;;;;17.48;11.20;;;14.10;99.90;;;;;;5034057;28;20119;-71
2021/07/21 03:01:32;;;;;;;15.00;10.57;;;14.10;99.90;;;;;;5054561;28;20124;-71
2021/07/21 03:04:02;;;;;;;16.05;10.35;;;14.10;99.90;;;;;;5029978;28;20140;-72
2021/07/21 03:06:36;;;;;;;17.48;11.18;;;14.00;99.90;;;;;;5035119;28;20152;-71
2021/07/21 03:09:08;;;;;;;18.75;11.43;;;14.10;99.90;;;;;;5047030;28;20045;-72
2021/07/21 03:11:49;;;;;;;18.17;10.38;;;14.00;99.90;;;;;;5050684;28;20037;-72
2021/07/21 03:14:18;;;;;;;16.73;10.07;;;14.00;99.90;;;;;;5034054;28;20099;-70
2021/07/21 03:16:51;;;;;;;16.35;9.80;;;13.90;99.90;;;;;;5049013;28;20529;-70
2021/07/21 03:19:44;;;;;;;19.27;10.23;;;13.90;99.90;;;;;;5043208;28;20041;-71
2021/07/21 03:22:23;;;;;;;18.02;10.30;;;13.90;99.90;;;;;;5048151;28;20045;-70
2021/07/21 03:25:03;;;;;;;15.48;10.77;;;13.90;99.90;;;;;;5032541;28;20044;-70
2021/07/21 03:27:46;;;;;;;13.50;9.98;;;13.80;99.90;;;;;;5036387;28;20040;-72
2021/07/21 03:30:24;;;;;;;18.13;9.80;;;13.80;99.90;;;;;;5050235;28;20373;-71
2021/07/21 03:32:59;;;;;;;14.48;9.30;;;13.70;99.90;;;;;;5049597;28;20066;-71
2021/07/21 03:35:33;;;;;;;13.30;9.35;;;13.70;99.90;;;;;;5050359;28;20094;-71
2021/07/21 03:38:05;;;;;;;20.30;10.00;;;13.70;99.90;;;;;;5050390;28;20479;-71
2021/07/21 03:40:38;;;;;;;14.50;9.25;;;13.70;99.90;;;;;;5029089;28;20068;-71
2021/07/21 03:43:24;;;;;;;13.55;9.38;;;13.70;99.90;;;;;;5037185;28;20109;-72
2021/07/21 03:45:59;;;;;;;15.38;9.77;;;13.70;99.90;;;;;;5049730;28;20045;-72
2021/07/21 03:48:30;;;;;;;17.60;11.05;;;13.70;99.90;;;;;;5049486;28;20041;-72
2021/07/21 03:51:18;;;;;;;14.75;9.70;;;13.70;99.90;;;;;;5049965;28;20056;-72
2021/07/21 03:54:08;;;;;;;15.25;9.50;;;13.70;99.90;;;;;;5049264;28;20094;-72
2021/07/21 03:56:42;;;;;;;16.35;10.23;;;13.70;99.90;;;;;;5034593;28;20044;-72
2021/07/21 03:59:15;;;;;;;15.45;9.45;;;13.70;99.90;;;;;;5036635;28;20044;-72
2021/07/21 04:01:44;;;;;;;15.68;9.93;;;13.70;99.90;;;;;;5038145;28;20055;-71
2021/07/21 04:04:19;;;;;;;13.63;8.88;;;13.70;99.90;;;;;;5048744;28;20033;-71
2021/07/21 04:06:48;;;;;;;15.68;9.02;;;13.80;99.90;;;;;;5047871;28;20041;-72
2021/07/21 04:09:23;;;;;;;15.15;9.18;;;13.90;99.90;;;;;;5025957;28;20041;-72
2021/07/21 04:11:56;;;;;;;16.13;9.98;;;13.90;99.90;;;;;;5027363;28;20053;-72
2021/07/21 04:14:41;;;;;;;15.07;9.23;;;13.90;99.90;;;;;;5039743;28;20487;-72
2021/07/21 04:17:31;;;;;;;14.50;10.05;;;13.90;99.90;;;;;;5031990;28;20045;-72
2021/07/21 04:20:03;;;;;;;17.00;10.05;;;14.00;99.90;;;;;;5007410;28;20049;-72
2021/07/21 04:22:32;;;;;;;18.58;10.55;;;14.00;99.90;;;;;;5048965;28;20139;-72
2021/07/21 04:25:01;;;;;;;15.10;9.65;;;14.00;99.90;;;;;;5030061;28;20084;-72
2021/07/21 04:27:34;;;;;;;15.38;10.05;;;14.10;99.90;;;;;;5028567;28;20052;-71
2021/07/21 04:30:13;;;;;;;15.23;9.80;;;14.10;99.90;;;;;;5049919;28;20041;-71
2021/07/21 04:32:44;;;;;;;17.40;10.65;;;14.20;99.90;;;;;;5043563;28;20120;-72
2021/07/21 04:35:17;;;;;;;17.00;10.93;;;14.20;99.90;;;;;;5046823;28;20033;-72
2021/07/21 04:37:57;;;;;;;15.55;9.98;;;14.30;99.90;;;;;;5045783;28;20049;-72
2021/07/21 04:40:38;;;;;;;16.73;10.70;;;14.40;99.90;;;;;;5026871;28;20053;-72
2021/07/21 04:43:29;;;;;;;14.07;9.45;;;14.40;99.90;;;;;;5032252;28;20147;-72
2021/07/21 04:45:59;;;;;;;13.32;9.75;;;14.50;99.90;;;;;;5039759;28;20083;-72
2021/07/21 04:48:28;;;;;;;14.32;9.82;;;14.60;99.90;;;;;;5026927;28;20526;-72
2021/07/21 04:51:00;;;;;;;15.38;9.50;;;14.70;99.90;;;;;;5030882;28;20037;-72
2021/07/21 04:53:28;;;;;;;17.55;10.27;;;14.70;99.90;;;;;;5043188;28;20116;-72
2021/07/21 04:55:56;;;;;;;16.60;10.02;;;14.80;99.90;;;;;;5049668;28;20500;-71
2021/07/21 04:58:25;;;;;;;18.05;9.23;;;14.80;99.90;;;;;;5048285;28;20041;-71
2021/07/21 05:01:03;;;;;;;15.05;9.82;;;14.90;99.90;;;;;;5037794;28;20048;-71
2021/07/21 05:03:33;;;;;;;15.82;9.95;;;15.00;99.90;;;;;;5048577;28;20041;-70
2021/07/21 05:06:03;;;;;;;13.40;9.40;;;15.10;99.90;;;;;;5050061;28;20037;-72
2021/07/21 05:08:38;;;;;;;14.80;10.48;;;15.10;99.90;;;;;;5048589;28;20041;-71
2021/07/21 05:11:19;;;;;;;16.40;10.30;;;15.20;99.90;;;;;;5032991;28;20055;-71
2021/07/21 05:13:48;;;;;;;14.25;9.43;;;15.20;99.90;;;;;;5048346;28;20067;-71
2021/07/21 05:16:20;;;;;;;13.25;9.45;;;15.30;99.90;;;;;;5042328;28;20083;-70
2021/07/21 05:18:48;;;;;;;13.88;9.52;;;15.40;99.90;;;;;;5042914;28;20120;-70
2021/07/21 05:21:27;;;;;;;15.55;10.05;;;15.40;99.90;;;;;;5030935;28;20029;-70
2021/07/21 05:23:55;;;;;;;15.90;10.00;;;15.50;99.90;;;;;;5032009;28;20083;-71
2021/07/21 05:26:23;;;;;;;16.77;11.23;;;15.60;99.90;;;;;;5049285;28;20045;-71
2021/07/21 05:29:16;;;;;;;18.40;10.35;;;15.60;99.90;;;;;;5053560;28;20037;-71
2021/07/21 05:31:49;;;;;;;20.65;10.65;;;15.70;99.90;;;;;;5052334;28;20502;-71
2021/07/21 05:34:27;;;;;;;15.07;9.57;;;15.70;99.90;;;;;;5053463;28;20114;-71
2021/07/21 05:37:13;;;;;;;17.05;10.80;;;15.80;99.90;;;;;;5043322;28;20045;-72
2021/07/21 05:39:50;;;;;;;14.73;10.00;;;15.90;99.90;;;;;;5016470;28;20041;-71
2021/07/21 05:42:17;;;;;;;19.05;10.93;;;15.90;99.90;;;;;;5049455;28;20049;-71
2021/07/21 05:44:45;;;;;;;13.45;9.30;;;16.00;99.90;;;;;;5049888;28;20044;-70
2021/07/21 05:47:13;;;;;;;15.35;9.77;;;16.00;99.90;;;;;;5033486;28;20045;-70
2021/07/21 05:49:41;;;;;;;14.73;9.27;;;16.00;99.90;;;;;;5038303;28;20879;-70
2021/07/21 05:52:24;;;;;;;14.10;8.95;;;16.10;99.90;;;;;;5050330;28;20041;-70
2021/07/21 05:54:52;;;;;;;17.25;10.10;;;16.20;99.90;;;;;;5043523;28;20052;-70
2021/07/21 05:57:24;;;;;;;16.42;10.73;;;16.30;99.90;;;;;;5062010;28;20162;-70
2021/07/21 06:00:13;;;;;;;14.00;9.45;;;16.30;99.90;;;;;;5044778;28;20064;-70
2021/07/21 06:02:49;;;;;;;19.02;10.65;;;16.40;99.90;;;;;;5026720;28;20049;-69
2021/07/21 06:05:25;;;;;;;17.42;11.15;;;16.50;99.90;;;;;;5041079;28;20079;-70
2021/07/21 06:08:07;;;;;;;15.70;10.97;;;16.50;99.90;;;;;;5052298;28;20048;-71
2021/07/21 06:10:55;;;;;;;17.10;10.63;;;16.50;99.90;;;;;;5053385;28;20033;-72
2021/07/21 06:13:25;;;;;;;18.23;10.43;;;16.60;99.90;;;;;;5051839;28;20090;-71
2021/07/21 06:15:54;;;;;;;17.42;9.82;;;16.70;99.90;;;;;;5058829;28;20036;-70
2021/07/21 06:18:22;;;;;;;18.00;9.27;;;16.70;99.90;;;;;;5043519;28;20049;-70
2021/07/21 06:20:51;;;;;;;17.95;9.43;;;16.80;99.90;;;;;;5038225;28;20049;-71
2021/07/21 06:23:18;;;;;;;21.77;9.93;;;16.90;99.90;;;;;;5028017;28;20045;-71
2021/07/21 06:25:50;;;;;;;15.07;9.23;;;16.90;99.90;;;;;;5043085;28;20119;-71
2021/07/21 06:28:34;;;;;;;15.40;10.82;;;17.00;99.90;;;;;;5049153;28;20114;-70
2021/07/21 06:31:02;;;;;;;16.70;10.45;;;17.30;99.90;;;;;;5032638;28;20045;-68
2021/07/21 06:33:33;;;;;;;;;;;17.50;99.90;;;;;;5021953;28;20052;-69
2021/07/21 06:36:02;;;;;;;18.55;9.77;;;17.60;99.90;;;;;;5048873;28;19928;-68
2021/07/21 06:38:38;;;;;;;17.17;9.73;;;17.60;99.90;;;;;;5042595;28;20128;-68
2021/07/21 06:41:19;;;;;;;14.35;10.10;;;17.70;99.90;;;;;;5031141;28;20036;-69
2021/07/21 06:43:50;;;;;;;16.92;9.93;;;17.70;99.90;;;;;;5040831;28;20055;-68
2021/07/21 06:46:20;;;;;;;16.55;10.35;;;17.70;99.90;;;;;;5037930;28;20045;-68
2021/07/21 06:49:02;;;;;;;13.60;8.73;;;17.80;99.90;;;;;;5046357;28;20029;-69
2021/07/21 06:51:30;;;;;;;13.85;9.40;;;17.80;99.90;;;;;;5045520;28;20072;-68
2021/07/21 06:53:58;;;;;;;13.45;8.70;;;17.90;99.90;;;;;;5047012;28;20396;-68
2021/07/21 06:56:45;;;;;;;15.48;9.73;;;18.00;99.90;;;;;;5034527;28;20065;-69
2021/07/21 06:59:32;;;;;;;12.43;9.57;;;18.00;99.90;;;;;;5052502;28;20041;-69
2021/07/21 07:02:00;;;;;;;15.55;10.38;;;18.10;99.90;;;;;;5046989;28;20049;-70
2021/07/21 07:04:45;;;;;;;14.15;10.48;;;18.10;99.90;;;;;;5032249;28;20052;-69
2021/07/21 07:07:44;;;;;;;13.75;9.50;;;18.20;99.90;;;;;;5023329;28;20049;-69
2021/07/21 07:10:31;;;;;;;16.90;10.25;;;18.40;99.90;;;;;;5025581;28;20052;-70
2021/07/21 07:12:59;;;;;;;15.25;9.13;;;18.50;99.90;;;;;;5030686;28;20140;-69
2021/07/21 07:15:27;;;;;;;14.88;9.35;;;18.60;99.90;;;;;;5027102;28;20049;-70
2021/07/21 07:17:55;;;;;;;13.18;9.05;;;18.70;99.90;;;;;;5040516;28;20069;-69
2021/07/21 07:20:22;;;;;;;15.45;9.23;;;18.80;99.90;;;;;;5040440;28;20071;-70
2021/07/21 07:22:49;;;;;;;13.55;8.93;;;18.80;99.90;;;;;;5028717;28;20045;-70
2021/07/21 07:25:17;;;;;;;14.50;9.43;;;18.90;99.90;;;;;;5014222;28;20053;-70
2021/07/21 07:27:44;;;;;;;13.05;8.77;;;19.10;99.90;;;;;;5021174;28;20152;-70
2021/07/21 07:30:14;;;;;;;13.63;8.50;;;19.20;99.90;;;;;;5031570;28;20603;-70
2021/07/21 07:32:42;;;;;;;14.52;10.30;;;19.20;99.90;;;;;;5034518;28;20080;-70
2021/07/21 07:35:09;;;;;;;14.00;9.40;;;19.30;99.90;;;;;;5036430;28;20591;-70
2021/07/21 07:37:37;;;;;;;17.10;10.20;;;19.40;99.90;;;;;;4991264;28;20037;-69
2021/07/21 07:40:05;;;;;;;14.50;9.55;;;19.50;99.90;;;;;;5013184;28;20053;-70
2021/07/21 07:42:32;;;;;;;16.00;9.48;;;19.50;99.90;;;;;;5013685;28;20475;-70
2021/07/21 07:45:00;;;;;;;13.02;9.10;;;19.70;99.90;;;;;;5039806;28;20053;-70
2021/07/21 07:47:28;;;;;;;13.30;8.93;;;19.80;99.90;;;;;;5043050;28;20128;-70
2021/07/21 07:49:56;;;;;;;15.98;9.40;;;19.90;99.90;;;;;;5035027;28;20037;-70
2021/07/21 07:52:23;;;;;;;13.18;9.05;;;19.90;99.90;;;;;;5028260;28;20041;-70
2021/07/21 07:54:50;;;;;;;13.20;9.30;;;19.90;99.90;;;;;;5047074;28;20041;-70
2021/07/21 07:57:18;;;;;;;15.45;9.63;;;20.10;99.90;;;;;;5046953;28;20041;-69
2021/07/21 07:59:45;;;;;;;14.13;8.88;;;20.00;99.90;;;;;;5050815;28;20569;-69
2021/07/21 08:02:12;;;;;;;15.60;9.27;;;20.10;99.90;;;;;;5037474;28;20041;-69
2021/07/21 08:04:40;;;;;;;15.20;9.77;;;20.10;99.90;;;;;;5042707;28;20385;-69
2021/07/21 08:07:08;;;;;;;13.77;9.98;;;20.10;99.90;;;;;;5044397;28;20483;-69
2021/07/21 08:09:36;;;;;;;14.75;9.70;;;20.10;99.90;;;;;;5026044;28;20045;-69
2021/07/21 08:12:04;;;;;;;12.85;8.95;;;20.10;99.90;;;;;;5030750;28;20102;-70
2021/07/21 08:14:31;;;;;;;16.63;9.55;;;20.20;99.90;;;;;;5049235;28;20352;-70
2021/07/21 08:16:59;;;;;;;15.20;9.02;;;20.30;99.90;;;;;;5050175;28;20045;-70
2021/07/21 08:19:26;;;;;;;16.55;9.15;;;20.30;99.90;;;;;;5050256;28;20065;-70
2021/07/21 08:21:57;;;;;;;13.02;8.55;;;20.40;99.90;;;;;;5046003;28;20120;-70
2021/07/21 08:24:24;;;;;;;14.02;9.02;;;20.50;99.90;;;;;;5049458;28;20675;-70
2021/07/21 08:26:52;;;;;;;18.13;8.93;;;20.60;99.90;;;;;;5048479;28;20049;-70
2021/07/21 08:29:36;;;;;;;16.67;9.35;;;20.70;99.90;;;;;;5044004;28;20092;-70
2021/07/21 08:32:05;;;;;;;12.80;8.95;;;20.70;99.90;;;;;;5039492;28;20496;-70
2021/07/21 08:34:33;;;;;;;12.10;8.63;;;20.70;99.90;;;;;;5040079;28;20099;-70
2021/07/21 08:37:01;;;;;;;15.25;10.32;;;20.80;99.90;;;;;;5042332;28;20099;-70
2021/07/21 08:39:28;;;;;;;13.48;9.93;;;20.90;99.90;;;;;;5047008;28;20047;-70
2021/07/21 08:41:55;;;;;;;13.07;9.40;;;21.10;99.90;;;;;;5046013;28;20045;-70
2021/07/21 08:44:23;;;;;;;11.77;8.95;;;21.20;99.90;;;;;;5041605;28;20219;-70
2021/07/21 08:46:50;;;;;;;13.38;8.60;;;21.40;99.90;;;;;;5048361;28;20041;-70
2021/07/21 08:49:17;;;;;;;13.65;8.95;;;21.50;99.90;;;;;;5050042;28;20051;-70
2021/07/21 08:51:45;;;;;;;14.70;8.35;;;21.60;99.90;;;;;;5035626;28;20046;-70
2021/07/21 08:54:16;;;;;;;11.40;8.95;;;21.70;99.90;;;;;;5050049;28;20037;-70
2021/07/21 08:56:44;;;;;;;14.85;8.75;;;21.60;99.90;;;;;;5046036;28;20129;-70
2021/07/21 08:59:16;;;;;;;14.98;9.50;;;21.70;99.90;;;;;;5015002;28;20041;-70
2021/07/21 09:01:44;;;;;;;13.98;8.70;;;21.50;99.90;;;;;;5052953;28;20132;-70
2021/07/21 09:04:11;;;;;;;12.70;8.88;;;21.50;99.90;;;;;;5050104;28;20033;-70
2021/07/21 09:06:41;;;;;;;13.05;8.68;;;21.50;99.90;;;;;;5048261;28;20496;-70
2021/07/21 09:09:09;;;;;;;14.48;8.73;;;21.50;99.90;;;;;;5036530;28;20060;-70
2021/07/21 09:11:36;;;;;;;13.05;8.82;;;21.60;99.90;;;;;;5048855;28;20045;-69
2021/07/21 09:14:07;;;;;;;14.13;9.18;;;21.70;99.90;;;;;;5049047;28;20067;-69
2021/07/21 09:16:34;;;;;;;15.25;8.63;;;21.90;99.90;;;;;;5050065;28;20045;-69
2021/07/21 09:19:02;;;;;;;12.48;8.23;;;22.10;99.90;;;;;;5049044;28;20108;-69
2021/07/21 09:21:29;;;;;;;13.07;8.02;;;22.20;99.90;;;;;;5028320;28;20040;-69
2021/07/21 09:23:58;;;;;;;11.75;8.20;;;22.50;99.90;;;;;;5043467;28;20045;-69
2021/07/21 09:26:36;;;;;;;12.02;8.75;;;22.70;99.90;;;;;;5046286;28;20047;-70
2021/07/21 09:29:03;;;;;;;12.15;7.95;;;22.80;99.90;;;;;;5031929;28;20597;-69
2021/07/21 09:31:40;;;;;;;13.25;8.27;;;22.90;99.90;;;;;;5050063;28;20056;-69
2021/07/21 09:34:20;;;;;;;10.88;7.75;;;23.00;99.90;;;;;;5050719;28;20037;-69
2021/07/21 09:36:58;;;;;;;12.20;8.95;;;23.10;99.90;;;;;;5045753;28;20349;-68
2021/07/21 09:39:34;;;;;;;13.38;7.45;;;23.30;99.90;;;;;;5032670;28;20043;-69
2021/07/21 09:42:02;;;;;;;12.30;7.10;;;23.40;99.90;;;;;;5045791;28;20384;-69
2021/07/21 09:44:34;;;;;;;12.85;7.68;;;23.50;99.90;;;;;;5045266;28;20037;-68
2021/07/21 09:47:12;;;;;;;11.07;7.55;;;23.70;99.90;;;;;;5049321;28;20049;-69
2021/07/21 09:49:41;;;;;;;11.55;7.82;;;23.90;99.90;;;;;;5042676;28;20111;-68
2021/07/21 09:52:19;;;;;;;10.82;6.72;;;24.10;99.90;;;;;;5046190;28;20060;-68
2021/07/21 09:55:05;;;;;;;9.93;6.50;;;24.10;99.90;;;;;;5048750;28;20051;-69
2021/07/21 09:57:34;;;;;;;13.65;6.80;;;24.20;99.90;;;;;;5039685;28;20055;-70
2021/07/21 10:00:21;;;;;;;10.48;7.15;;;24.40;99.90;;;;;;5035900;28;20070;-69
2021/07/21 10:02:50;;;;;;;10.00;6.78;;;24.30;99.90;;;;;;5037149;28;20079;-68
2021/07/21 10:05:18;;;;;;;10.80;6.78;;;24.20;99.90;;;;;;5031341;28;20045;-69
2021/07/21 10:07:51;;;;;;;12.93;7.65;;;24.30;99.90;;;;;;5047499;28;20048;-68
2021/07/21 10:10:21;;;;;;;10.88;7.68;;;24.40;99.90;;;;;;5048068;28;20076;-69
2021/07/21 10:13:10;;;;;;;12.73;8.32;;;24.40;99.90;;;;;;5046688;28;20412;-69
2021/07/21 10:15:38;;;;;;;12.07;8.07;;;24.40;99.90;;;;;;5051804;28;20044;-68
2021/07/21 10:18:14;;;;;;;13.13;8.00;;;24.50;99.90;;;;;;5050601;28;20116;-68
2021/07/21 10:20:45;;;;;;;14.48;7.38;;;24.70;99.90;;;;;;5043066;28;20064;-70
2021/07/21 10:23:14;;;;;;;11.63;7.28;;;24.70;99.90;;;;;;5047245;28;20045;-70
2021/07/21 10:25:42;;;;;;;11.07;7.40;;;24.50;99.90;;;;;;5060305;28;20049;-69
2021/07/21 10:28:10;;;;;;;10.48;6.78;;;24.50;99.90;;;;;;5050558;28;20515;-69
2021/07/21 10:30:39;;;;;;;8.50;6.50;;;24.60;99.90;;;;;;5048751;28;20120;-69
2021/07/21 10:33:06;;;;;;;11.32;7.25;;;24.80;99.90;;;;;;5051706;28;20488;-69
2021/07/21 10:35:34;;;;;;;10.18;7.13;;;24.90;99.90;;;;;;5039557;28;20607;-69
2021/07/21 10:38:03;;;;;;;10.43;7.22;;;25.10;99.90;;;;;;5035048;28;20204;-69
2021/07/21 10:40:32;;;;;;;11.00;7.50;;;25.20;99.90;;;;;;5042185;28;20049;-69
2021/07/21 10:43:02;;;;;;;10.40;6.82;;;25.10;99.90;;;;;;5042068;28;20515;-69
2021/07/21 10:45:33;;;;;;;10.05;7.20;;;25.20;99.90;;;;;;5023384;28;20075;-69
2021/07/21 10:48:18;;;;;;;9.52;6.93;;;25.00;99.90;;;;;;5043995;28;20139;-68
2021/07/21 10:51:14;;;;;;;13.90;7.45;;;25.20;99.90;;;;;;5048885;28;20045;-69
2021/07/21 10:59:47;;;;;;;9.27;6.65;;;26.60;99.90;;;;;;5049461;28;20045;-68
2021/07/21 11:02:20;;;;;;;10.00;6.72;;;27.00;99.90;;;;;;5045690;28;20045;-69
2021/07/21 11:04:49;;;;;;;14.43;6.55;;;27.40;99.90;;;;;;5044003;28;20098;-69
2021/07/21 11:07:52;;;;;;;10.35;7.53;;;27.70;99.90;;;;;;5031775;28;20159;-69
2021/07/21 11:10:31;;;;;;;13.32;7.68;;;28.00;99.90;;;;;;5053035;28;20128;-70
2021/07/21 11:12:59;;;;;;;10.00;6.53;;;28.10;99.90;;;;;;5050006;28;20083;-70
2021/07/21 11:15:38;;;;;;;9.95;6.78;;;28.00;99.90;;;;;;5049525;28;20048;-70
2021/07/21 11:18:24;;;;;;;10.15;6.53;;;28.30;99.90;;;;;;5051256;28;20045;-71
2021/07/21 11:21:15;;;;;;;9.48;6.75;;;28.30;99.80;;;;;;5049136;28;20172;-69
2021/07/21 11:23:52;;;;;;;10.05;7.20;;;28.30;99.90;;;;;;5042651;28;20061;-70
2021/07/21 11:26:34;;;;;;;10.10;6.72;;;28.70;99.90;;;;;;5052415;28;20072;-70
2021/07/21 11:29:23;;;;;;;10.80;6.80;;;29.00;98.80;;;;;;5051012;28;20127;-70
2021/07/21 11:31:54;;;;;;;9.40;6.18;;;29.10;97.20;;;;;;5049250;28;20419;-70
2021/07/21 11:34:30;;;;;;;10.17;6.60;;;29.10;97.20;;;;;;5052439;28;20108;-70
2021/07/21 11:37:21;;;;;;;9.13;6.68;;;29.40;96.50;;;;;;5024925;28;20041;-69
2021/07/21 11:39:59;;;;;;;9.68;6.35;;;29.60;95.90;;;;;;5046842;28;20049;-68
2021/07/21 11:42:34;;;;;;;8.95;6.50;;;29.60;94.60;;;;;;5043978;28;20049;-69
2021/07/21 11:45:12;;;;;;;9.85;6.05;;;29.70;94.70;;;;;;5046720;28;20191;-69
2021/07/21 11:47:48;;;;;;;9.40;6.20;;;30.00;93.30;;;;;;5045240;28;20107;-69
2021/07/21 11:50:21;;;;;;;9.32;6.03;;;29.80;92.90;;;;;;5031046;28;20073;-69
2021/07/21 11:53:02;;;;;;;8.93;6.03;;;29.80;92.70;;;;;;5041463;28;20043;-69
2021/07/21 11:55:32;;;;;;;7.85;5.78;;;30.20;91.30;;;;;;5030744;28;20520;-69
2021/07/21 11:58:11;;;;;;;11.45;6.28;;;30.50;90.40;;;;;;5042937;28;20032;-69
2021/07/21 12:00:46;;;;;;;10.02;5.78;;;30.80;90.10;;;;;;5039603;28;20041;-69
2021/07/21 12:03:16;;;;;;;9.95;6.45;;;30.60;87.70;;;;;;5040952;28;20119;-69
2021/07/21 12:05:57;;;;;;;8.52;6.18;;;30.70;87.80;;;;;;5045815;28;20041;-69
2021/07/21 12:08:24;;;;;;;9.13;5.53;;;30.90;86.10;;;;;;5035217;28;20042;-69
2021/07/21 12:10:52;;;;;;;7.97;5.43;;;31.00;86.70;;;;;;5036242;28;20033;-69
2021/07/21 12:13:20;;;;;;;7.57;5.57;;;31.40;84.90;;;;;;5042542;28;20491;-69
2021/07/21 12:16:00;;;;;;;9.57;5.68;;;31.70;85.10;;;;;;5035482;28;20459;-69
2021/07/21 12:18:29;;;;;;;9.45;5.57;;;31.80;83.50;;;;;;5044304;28;20048;-69
2021/07/21 12:21:05;;;;;;;7.60;5.65;;;32.30;84.30;;;;;;5038793;28;20045;-69
2021/07/21 12:23:33;;;;;;;8.45;5.32;;;33.00;78.90;;;;;;5041814;28;20562;-70
2021/07/21 12:26:06;;;;;;;7.05;5.57;;;33.20;76.90;;;;;;5041112;28;20053;-69
2021/07/21 12:28:33;;;;;;;10.23;7.78;;;33.40;75.50;;;;;;5036848;28;20496;-69
2021/07/21 12:31:01;;;;;;;12.63;8.68;;;34.10;74.30;;;;;;5037026;28;20041;-69
2021/07/21 12:33:28;;;;;;;9.57;5.85;;;34.60;73.30;;;;;;5046198;28;20069;-69
2021/07/21 12:36:06;;;;;;;7.97;5.70;;;34.80;71.60;;;;;;5040376;28;20052;-69
2021/07/21 12:38:38;;;;;;;8.52;5.05;;;35.00;69.60;;;;;;5038702;28;20041;-69
2021/07/21 12:41:09;;;;;;;9.23;5.53;;;35.00;67.60;;;;;;5037104;28;20050;-70
2021/07/21 12:43:37;;;;;;;8.13;5.90;;;35.10;68.70;;;;;;5049191;28;20049;-69
2021/07/21 12:46:15;;;;;;;10.23;5.63;;;35.30;67.70;;;;;;5050100;28;20041;-69
2021/07/21 12:48:43;;;;;;;7.18;5.40;;;34.80;67.20;;;;;;5039841;28;20092;-69
2021/07/21 12:51:11;;;;;;;10.68;5.95;;;33.90;67.80;;;;;;5030179;28;20492;-69
2021/07/21 12:53:41;;;;;;;13.25;8.27;;;33.50;68.10;;;;;;5045202;28;20558;-69
2021/07/21 12:56:09;;;;;;;6.75;4.78;;;33.30;67.90;;;;;;5049269;28;20388;-69
2021/07/21 12:58:36;;;;;;;9.07;5.43;;;32.90;67.30;;;;;;5042185;28;20483;-69
2021/07/21 13:01:04;;;;;;;8.55;5.22;;;32.70;67.90;;;;;;5051212;28;20368;-70
2021/07/21 13:03:32;;;;;;;7.82;5.60;;;33.00;67.60;;;;;;5043670;28;20080;-69
2021/07/21 13:06:00;;;;;;;7.18;4.80;;;33.60;67.90;;;;;;5048525;28;20068;-69
2021/07/21 13:08:33;;;;;;;6.97;5.47;;;33.50;66.60;;;;;;5060633;28;20079;-69
2021/07/21 13:11:13;;;;;;;7.43;5.70;;;33.10;67.90;;;;;;5016196;28;20079;-69
2021/07/21 13:13:50;;;;;;;7.28;5.70;;;33.20;67.70;;;;;;5047818;28;20033;-70
2021/07/21 13:16:27;;;;;;;8.50;5.38;;;33.40;66.00;;;;;;5049581;28;20040;-69
2021/07/21 13:19:06;;;;;;;9.60;6.00;;;33.70;66.60;;;;;;5043953;28;20049;-69
2021/07/21 13:21:38;;;;;;;10.18;6.03;;;33.60;67.00;;;;;;5045863;28;20503;-69